Time;durP1;ratioP1;P1;durP2;ratioP2;P2;SDS_P1;SDS_P2;PMS_P1;PMS_P2;Temp;Humidity;BMP_temperature;BMP_pressure;BME280_temperature;BME280_humidity;BME280_pressure;Samples;Min_cycle;Max_cycle;Signal;HPM_P1;HPM_P2
2023/05/14 00:01:27;;;;;;;2.33;2.13;;;;;;;24.67;41.96;101842.69;5038240;27;97172;-76
2023/05/14 00:03:53;;;;;;;2.60;2.20;;;;;;;24.67;42.38;101838.03;5046499;27;96807;-76
2023/05/14 00:06:20;;;;;;;2.45;2.25;;;;;;;24.66;42.32;101841.81;5047530;27;96988;-76
2023/05/14 00:08:46;;;;;;;2.63;2.22;;;;;;;24.67;42.31;101842.69;5041198;27;97831;-76
2023/05/14 00:11:13;;;;;;;2.35;2.15;;;;;;;24.66;42.22;101836.31;5043550;27;97110;-76
2023/05/14 00:13:40;;;;;;;2.90;2.25;;;;;;;24.67;42.05;101840.78;5042993;27;97808;-76
2023/05/14 00:16:06;;;;;;;2.17;1.88;;;;;;;24.66;42.07;101839.06;5045018;27;97497;-76
2023/05/14 00:18:33;;;;;;;2.10;1.90;;;;;;;24.66;41.75;101839.06;5046676;27;96554;-76
2023/05/14 00:20:59;;;;;;;3.05;2.17;;;;;;;24.66;42.17;101841.81;5042331;27;96865;-76
2023/05/14 00:23:26;;;;;;;2.30;2.10;;;;;;;24.66;42.22;101839.06;5038247;27;97017;-76
2023/05/14 00:25:52;;;;;;;2.10;1.90;;;;;;;24.65;42.44;101834.63;5036670;27;96724;-76
2023/05/14 00:28:19;;;;;;;2.30;2.10;;;;;;;24.67;42.12;101839.94;5048406;27;99386;-76
2023/05/14 00:30:47;;;;;;;2.75;2.42;;;;;;;24.65;42.19;101831.88;5032821;27;96925;-76
2023/05/14 00:33:14;;;;;;;2.47;2.00;;;;;;;24.66;41.81;101840.97;5049337;27;96973;-76
2023/05/14 00:35:40;;;;;;;2.10;1.90;;;;;;;24.65;42.07;101831.88;5050646;27;97953;-76
2023/05/14 00:38:07;;;;;;;2.05;1.85;;;;;;;24.66;42.19;101832.72;5043884;27;96934;-76
2023/05/14 00:40:34;;;;;;;2.42;2.10;;;;;;;24.65;42.23;101831.88;5044697;27;97283;-76
2023/05/14 00:43:00;;;;;;;2.03;1.85;;;;;;;24.65;42.45;101828.25;5046075;27;96955;-76
2023/05/14 00:45:27;;;;;;;2.20;2.00;;;;;;;24.64;42.27;101824.66;5054041;27;99590;-76
2023/05/14 00:47:53;;;;;;;1.92;1.83;;;;;;;24.64;42.17;101824.66;5049017;27;97519;-76
2023/05/14 00:50:21;;;;;;;3.80;1.90;;;;;;;24.64;42.30;101818.31;5048754;27;99392;-76
2023/05/14 00:52:48;;;;;;;2.50;2.15;;;;;;;24.64;42.26;101813.66;5045080;27;96721;-76
2023/05/14 00:55:15;;;;;;;4.22;2.15;;;;;;;24.63;42.05;101814.72;5061864;27;98626;-76
2023/05/14 00:57:43;;;;;;;2.13;1.92;;;;;;;24.64;42.44;101810.94;5051158;27;99642;-76
2023/05/14 01:00:10;;;;;;;3.40;2.38;;;;;;;24.63;41.88;101811.97;5041515;27;96973;-76
2023/05/14 01:02:36;;;;;;;2.60;2.00;;;;;;;24.62;42.40;101818.50;5039409;27;98111;-76
2023/05/14 01:05:04;;;;;;;2.90;2.15;;;;;;;24.62;42.17;101810.25;5039374;27;98167;-76
2023/05/14 01:07:52;;;;;;;2.60;2.17;;;;;;;24.62;42.31;101813.00;5050477;27;99979;-76
2023/05/14 01:10:40;;;;;;;2.05;1.80;;;;;;;24.62;42.00;101820.38;5047996;27;96877;-76
2023/05/14 01:13:17;;;;;;;2.63;2.08;;;;;;;24.60;42.06;101809.56;5040357;27;96972;-76
2023/05/14 01:15:46;;;;;;;2.05;1.73;;;;;;;24.61;42.26;101807.69;5040952;27;98053;-76
2023/05/14 01:18:17;;;;;;;2.17;1.98;;;;;;;24.60;42.40;101819.69;5049116;27;96888;-76
2023/05/14 01:20:44;;;;;;;2.35;2.03;;;;;;;24.59;42.17;101810.59;5039567;27;96681;-76
2023/05/14 01:23:11;;;;;;;2.00;1.80;;;;;;;24.58;42.17;101811.63;5045940;27;96907;-76
2023/05/14 01:25:38;;;;;;;2.85;2.05;;;;;;;24.59;42.30;101807.84;5038997;27;97839;-76
2023/05/14 01:28:19;;;;;;;2.03;1.90;;;;;;;24.60;42.12;101811.47;5044450;27;97312;-76
2023/05/14 01:31:11;;;;;;;2.20;2.00;;;;;;;24.59;42.25;101810.59;5047493;27;96898;-76
2023/05/14 01:33:41;;;;;;;2.65;2.10;;;;;;;24.58;42.32;101811.63;5057658;27;96915;-76
2023/05/14 01:36:08;;;;;;;2.13;1.90;;;;;;;24.57;42.18;101801.69;5037742;27;98858;-76
2023/05/14 01:38:36;;;;;;;2.75;1.95;;;;;;;24.58;42.47;101808.03;5036319;27;99101;-76
2023/05/14 01:41:04;;;;;;;2.13;1.92;;;;;;;24.57;42.20;101798.94;5027539;27;99239;-76
2023/05/14 01:43:31;;;;;;;2.10;1.67;;;;;;;24.57;42.29;101804.44;5043729;27;96896;-76
2023/05/14 01:45:57;;;;;;;2.13;1.80;;;;;;;24.58;42.18;101802.53;5023043;27;99746;-76
2023/05/14 01:48:24;;;;;;;3.38;2.08;;;;;;;24.58;42.09;101805.28;5038852;27;96947;-76
2023/05/14 01:50:51;;;;;;;2.08;1.90;;;;;;;24.58;42.11;101795.16;5048666;27;97382;-76
2023/05/14 01:53:17;;;;;;;2.00;1.80;;;;;;;24.58;42.26;101797.03;5042912;27;96706;-76
2023/05/14 01:55:44;;;;;;;2.03;1.80;;;;;;;24.58;42.29;101799.78;5040541;27;98053;-76
2023/05/14 01:58:11;;;;;;;2.28;2.08;;;;;;;24.58;42.32;101799.78;5043972;27;97761;-76
2023/05/14 02:00:37;;;;;;;2.35;2.05;;;;;;;24.58;42.27;101791.56;5042413;27;98701;-76
2023/05/14 02:03:04;;;;;;;2.15;1.95;;;;;;;24.58;42.18;101792.41;5045292;27;97120;-76
2023/05/14 02:05:30;;;;;;;2.42;2.13;;;;;;;24.58;42.57;101786.91;5043939;27;97740;-76
2023/05/14 02:07:57;;;;;;;2.05;1.88;;;;;;;24.57;42.08;101789.84;5043405;27;97786;-76
2023/05/14 02:10:23;;;;;;;3.33;1.70;;;;;;;24.58;42.14;101780.56;5034069;27;97115;-76
2023/05/14 02:12:50;;;;;;;2.25;2.00;;;;;;;24.58;42.03;101786.06;5039522;27;99853;-76
2023/05/14 02:15:17;;;;;;;2.10;1.80;;;;;;;24.57;42.12;101776.97;5041061;27;98049;-76
2023/05/14 02:17:44;;;;;;;2.20;2.00;;;;;;;24.56;42.32;101786.25;5048519;27;100815;-76
2023/05/14 02:20:11;;;;;;;1.95;1.75;;;;;;;24.57;42.37;101787.94;5041552;27;96773;-76
2023/05/14 02:22:41;;;;;;;2.40;2.20;;;;;;;24.57;42.31;101787.94;5047549;27;96680;-76
2023/05/14 02:25:08;;;;;;;3.33;2.42;;;;;;;24.56;42.44;101788.97;5042145;27;99325;-76
2023/05/14 02:27:34;;;;;;;2.20;2.00;;;;;;;24.56;42.25;101791.72;5035988;27;98102;-76
2023/05/14 02:30:01;;;;;;;1.98;1.77;;;;;;;24.57;42.15;101795.34;5037920;27;97065;-76
2023/05/14 02:32:28;;;;;;;2.03;1.83;;;;;;;24.55;42.28;101787.28;5033822;27;96841;-76
2023/05/14 02:34:55;;;;;;;2.10;1.90;;;;;;;24.56;42.50;101786.25;5037172;27;98146;-76
2023/05/14 02:37:21;;;;;;;2.10;1.90;;;;;;;24.55;42.28;101772.69;5032090;27;98533;-76
2023/05/14 02:39:48;;;;;;;2.10;1.90;;;;;;;24.55;42.18;101773.53;5041269;27;96930;-76
2023/05/14 02:42:14;;;;;;;2.42;2.17;;;;;;;24.55;42.31;101772.69;5040412;27;97042;-76
2023/05/14 02:44:41;;;;;;;2.33;2.00;;;;;;;24.55;42.20;101770.78;5038238;27;99272;-76
2023/05/14 02:47:07;;;;;;;2.03;1.83;;;;;;;24.55;42.36;101775.44;5041324;27;97388;-76
2023/05/14 02:49:34;;;;;;;2.22;2.03;;;;;;;24.54;41.95;101769.09;5040471;27;96723;-76
2023/05/14 02:52:02;;;;;;;2.60;2.13;;;;;;;24.54;42.26;101770.97;5037818;27;97122;-76
2023/05/14 02:54:28;;;;;;;2.22;1.95;;;;;;;24.53;42.15;101772.88;5041072;27;97829;-76
2023/05/14 02:56:55;;;;;;;2.65;1.98;;;;;;;24.54;42.16;101769.09;5034959;27;100223;-76
2023/05/14 02:59:23;;;;;;;2.20;2.00;;;;;;;24.54;42.33;101768.22;5037986;27;96786;-76
2023/05/14 03:01:50;;;;;;;2.30;2.10;;;;;;;24.54;42.32;101769.09;5058233;27;96991;-76
2023/05/14 03:04:17;;;;;;;2.45;2.25;;;;;;;24.54;42.56;101766.34;5045770;27;99470;-76
2023/05/14 03:06:44;;;;;;;2.10;1.85;;;;;;;24.53;42.14;101770.13;5037320;27;96727;-76
2023/05/14 03:09:11;;;;;;;2.05;1.85;;;;;;;24.53;42.32;101772.88;5042358;27;97020;-76
2023/05/14 03:11:37;;;;;;;2.15;1.95;;;;;;;24.53;42.28;101772.00;5039072;27;96868;-76
2023/05/14 03:14:04;;;;;;;2.13;1.90;;;;;;;24.51;42.22;101766.66;5038473;27;96927;-76
2023/05/14 03:16:30;;;;;;;2.20;2.00;;;;;;;24.52;41.67;101764.75;5037194;27;96708;-76
2023/05/14 03:18:57;;;;;;;1.95;1.80;;;;;;;24.51;42.02;101761.16;5032017;27;96916;-76
2023/05/14 03:21:24;;;;;;;2.35;2.13;;;;;;;24.52;42.44;101759.28;5040294;27;98152;-76
2023/05/14 03:23:51;;;;;;;1.80;1.70;;;;;;;24.51;42.22;101752.94;5045056;27;97150;-76
2023/05/14 03:26:18;;;;;;;3.25;1.83;;;;;;;24.52;42.17;101759.28;5044096;27;99453;-76
2023/05/14 03:28:44;;;;;;;1.90;1.73;;;;;;;24.51;42.35;101757.56;5039267;27;96737;-76
2023/05/14 03:31:11;;;;;;;2.08;1.88;;;;;;;24.51;42.22;101749.31;5035887;27;96966;-76
2023/05/14 03:33:38;;;;;;;2.42;2.05;;;;;;;24.50;42.11;101751.22;5044903;27;97464;-76
2023/05/14 03:36:05;;;;;;;2.38;2.10;;;;;;;24.50;42.33;101750.34;5022111;27;97002;-76
2023/05/14 03:38:31;;;;;;;3.05;2.00;;;;;;;24.51;42.28;101754.81;5042479;27;97392;-76
2023/05/14 03:40:58;;;;;;;2.03;1.90;;;;;;;24.50;42.20;101753.97;5033634;27;97017;-76
2023/05/14 03:43:24;;;;;;;2.58;1.90;;;;;;;24.49;42.64;101752.25;5031275;27;97208;-76
2023/05/14 03:45:51;;;;;;;2.50;2.00;;;;;;;24.49;42.30;101751.41;5040018;27;97173;-76
2023/05/14 03:48:18;;;;;;;2.55;2.28;;;;;;;24.49;42.19;101744.00;5016914;27;96768;-76
2023/05/14 03:50:46;;;;;;;2.28;2.05;;;;;;;24.50;42.17;101750.34;5036628;27;96777;-76
2023/05/14 03:53:12;;;;;;;2.25;1.60;;;;;;;24.50;42.02;101745.72;5038821;27;98308;-76
2023/05/14 03:55:39;;;;;;;1.70;1.60;;;;;;;24.49;42.12;101746.75;5040084;27;97210;-76
2023/05/14 03:58:12;;;;;;;2.20;1.98;;;;;;;24.48;42.21;101747.78;5038001;27;96753;-76
2023/05/14 04:00:41;;;;;;;2.10;1.98;;;;;;;24.48;42.23;101750.53;5051522;27;96769;-76
2023/05/14 04:03:08;;;;;;;2.30;1.90;;;;;;;24.48;41.63;101744.19;5040974;27;100361;-76
2023/05/14 04:05:35;;;;;;;1.95;1.85;;;;;;;24.48;42.18;101742.31;5039384;27;97089;-76
2023/05/14 04:08:02;;;;;;;2.05;1.80;;;;;;;24.47;42.07;101743.34;5042879;27;99330;-76
2023/05/14 04:10:31;;;;;;;2.20;2.00;;;;;;;24.47;42.18;101740.59;5046541;27;96681;-76
2023/05/14 04:12:59;;;;;;;2.42;2.22;;;;;;;24.46;42.43;101736.13;5044210;27;97704;-76
2023/05/14 04:15:30;;;;;;;2.05;1.90;;;;;;;24.47;42.16;101739.72;5037590;27;99082;-76
2023/05/14 04:17:56;;;;;;;1.70;1.60;;;;;;;24.46;42.19;101741.63;5042795;27;96903;-76
2023/05/14 04:20:23;;;;;;;2.08;1.85;;;;;;;24.46;42.30;101743.50;5045207;27;99190;-76
2023/05/14 04:22:50;;;;;;;2.95;2.20;;;;;;;24.46;42.11;101740.75;5040809;27;97051;-75
2023/05/14 04:25:17;;;;;;;2.10;1.90;;;;;;;24.46;41.96;101744.38;5036577;27;97121;-76
2023/05/14 04:27:43;;;;;;;2.72;2.10;;;;;;;24.46;42.05;101746.25;5042151;27;97020;-76
2023/05/14 04:30:10;;;;;;;2.08;1.88;;;;;;;24.46;42.24;101743.50;5039681;27;96881;-76
2023/05/14 04:32:37;;;;;;;2.33;1.98;;;;;;;24.45;42.07;101742.66;5040085;27;97822;-76
2023/05/14 04:35:04;;;;;;;2.10;1.90;;;;;;;24.46;42.26;101752.59;5042686;27;98108;-76
2023/05/14 04:37:31;;;;;;;1.80;1.70;;;;;;;24.46;42.30;101749.84;5043674;27;96806;-76
2023/05/14 04:39:58;;;;;;;1.70;1.60;;;;;;;24.46;42.07;101744.38;5028023;27;96666;-76
2023/05/14 04:42:24;;;;;;;1.67;1.58;;;;;;;24.46;42.14;101752.59;5047286;27;98220;-76
2023/05/14 04:44:51;;;;;;;2.30;2.00;;;;;;;24.47;42.10;101754.31;5036610;27;96532;-76
2023/05/14 04:47:18;;;;;;;2.17;1.90;;;;;;;24.46;42.33;101752.59;5041488;27;96837;-76
2023/05/14 04:49:45;;;;;;;1.85;1.75;;;;;;;24.47;42.13;101750.72;5043665;27;97289;-76
2023/05/14 04:52:11;;;;;;;2.28;1.90;;;;;;;24.46;42.08;101749.84;5038224;27;97756;-76
2023/05/14 04:54:38;;;;;;;2.85;2.10;;;;;;;24.46;42.18;101752.59;5037165;27;98590;-76
2023/05/14 04:57:05;;;;;;;3.08;2.10;;;;;;;24.48;41.91;101755.16;5040177;27;97098;-76
2023/05/14 04:59:31;;;;;;;2.00;1.77;;;;;;;24.46;42.07;101758.09;5046564;27;97395;-76
2023/05/14 05:01:58;;;;;;;2.10;1.90;;;;;;;24.46;42.02;101755.34;5038165;27;97113;-76
2023/05/14 05:04:25;;;;;;;2.80;1.92;;;;;;;24.47;42.26;101754.31;5038316;27;97154;-76
2023/05/14 05:06:51;;;;;;;2.20;2.00;;;;;;;24.46;42.33;101749.84;5036149;27;96771;-76
2023/05/14 05:09:18;;;;;;;1.95;1.77;;;;;;;24.48;42.16;101752.44;5016822;27;96933;-76
2023/05/14 05:11:45;;;;;;;2.00;1.80;;;;;;;24.47;42.08;101753.47;5041437;27;99322;-76
2023/05/14 05:14:11;;;;;;;2.05;1.83;;;;;;;24.47;42.41;101768.03;5036731;27;97266;-76
2023/05/14 05:16:38;;;;;;;2.05;1.92;;;;;;;24.47;42.06;101758.94;5046302;27;96738;-76
2023/05/14 05:19:04;;;;;;;2.30;2.00;;;;;;;24.48;42.32;101749.69;5048593;27;96825;-76
2023/05/14 05:21:31;;;;;;;2.65;2.03;;;;;;;24.48;42.28;101761.53;5047230;27;96889;-76
2023/05/14 05:23:57;;;;;;;1.90;1.80;;;;;;;24.48;42.28;101763.41;5043006;27;97030;-76
2023/05/14 05:26:26;;;;;;;2.70;2.25;;;;;;;24.47;42.05;101759.81;5047987;27;97315;-76
2023/05/14 05:28:52;;;;;;;1.90;1.80;;;;;;;24.48;41.92;101760.66;5054477;27;96640;-76
2023/05/14 05:31:19;;;;;;;2.42;1.80;;;;;;;24.48;42.10;101763.41;5044051;27;97856;-76
2023/05/14 05:33:46;;;;;;;3.45;2.00;;;;;;;24.48;42.13;101764.25;5039187;27;98487;-76
2023/05/14 05:36:13;;;;;;;2.47;1.95;;;;;;;24.48;42.17;101760.66;5047029;27;96733;-76
2023/05/14 05:38:39;;;;;;;2.10;1.90;;;;;;;24.49;42.11;101762.38;5050215;27;98543;-76
2023/05/14 05:41:06;;;;;;;2.17;1.98;;;;;;;24.48;42.22;101764.25;5036715;27;98839;-76
2023/05/14 05:43:33;;;;;;;2.40;2.20;;;;;;;24.48;42.08;101767.00;5035744;27;97233;-76
2023/05/14 05:46:00;;;;;;;1.85;1.63;;;;;;;24.48;42.07;101758.78;5043732;27;97293;-76
2023/05/14 05:48:27;;;;;;;2.95;2.10;;;;;;;24.48;41.93;101758.78;5045943;27;97202;-76
2023/05/14 05:50:54;;;;;;;1.77;1.67;;;;;;;24.49;42.22;101756.88;5040321;27;96734;-76
2023/05/14 05:53:20;;;;;;;2.60;1.90;;;;;;;24.49;42.44;101759.63;5043768;27;96821;-76
2023/05/14 05:55:47;;;;;;;2.08;1.88;;;;;;;24.49;42.52;101760.47;5040883;27;96990;-76
2023/05/14 05:58:15;;;;;;;2.38;1.85;;;;;;;24.49;42.41;101759.63;5043600;27;96904;-76
2023/05/14 06:00:42;;;;;;;2.00;1.80;;;;;;;24.49;42.23;101757.75;5022768;27;99357;-76
2023/05/14 06:03:10;;;;;;;1.92;1.83;;;;;;;24.49;42.00;101771.47;5046814;27;96894;-76
2023/05/14 06:05:36;;;;;;;2.13;1.92;;;;;;;24.49;42.50;101757.75;5042684;27;96865;-76
2023/05/14 06:08:04;;;;;;;2.28;2.08;;;;;;;24.50;42.02;101764.94;5043331;27;96829;-76
2023/05/14 06:10:30;;;;;;;2.03;1.90;;;;;;;24.50;41.76;101772.31;5033607;27;96806;-76
2023/05/14 06:12:57;;;;;;;2.00;1.90;;;;;;;24.50;42.18;101777.81;5042640;27;97355;-76
2023/05/14 06:15:23;;;;;;;1.83;1.73;;;;;;;24.51;42.20;101768.53;5037697;27;96620;-76
2023/05/14 06:17:50;;;;;;;1.98;1.85;;;;;;;24.51;42.05;101768.53;5036936;27;96767;-76
2023/05/14 06:20:17;;;;;;;1.80;1.70;;;;;;;24.50;42.05;101762.19;5044211;27;97339;-76
2023/05/14 06:22:44;;;;;;;2.10;1.90;;;;;;;24.51;42.02;101769.41;5038016;27;96889;-76
2023/05/14 06:25:10;;;;;;;1.85;1.73;;;;;;;24.51;41.96;101776.78;5020606;27;97049;-76
2023/05/14 06:27:37;;;;;;;1.80;1.70;;;;;;;24.52;42.02;101771.13;5040305;27;96641;-76
2023/05/14 06:30:05;;;;;;;2.28;2.08;;;;;;;24.52;41.96;101779.34;5045845;27;97477;-76
2023/05/14 06:32:32;;;;;;;2.25;1.70;;;;;;;24.53;42.03;101785.72;5040984;27;97293;-76
2023/05/14 06:34:58;;;;;;;1.65;1.55;;;;;;;24.53;42.25;101780.25;5036732;27;97295;-76
2023/05/14 06:37:25;;;;;;;2.88;1.73;;;;;;;24.53;41.99;101780.25;5038118;27;96833;-76
2023/05/14 06:39:52;;;;;;;2.10;1.88;;;;;;;24.54;42.19;101788.31;5041205;27;97704;-76
2023/05/14 06:42:20;;;;;;;1.98;1.77;;;;;;;24.54;42.07;101784.69;5046561;27;96766;-76
2023/05/14 06:44:46;;;;;;;2.35;2.00;;;;;;;24.54;41.96;101784.69;5049076;27;97195;-76
2023/05/14 06:47:14;;;;;;;2.10;1.73;;;;;;;24.54;42.13;101771.81;5039611;27;96841;-76
2023/05/14 06:49:40;;;;;;;2.40;1.80;;;;;;;24.53;42.21;101781.09;5035133;27;100126;-76
2023/05/14 06:52:07;;;;;;;2.00;1.85;;;;;;;24.54;41.95;101774.56;5046989;27;97981;-76
2023/05/14 06:54:33;;;;;;;2.10;1.90;;;;;;;24.55;42.12;101769.94;5044236;27;96729;-76
2023/05/14 06:57:00;;;;;;;2.38;1.95;;;;;;;24.55;41.90;101767.19;5035499;27;96694;-76
2023/05/14 06:59:27;;;;;;;1.95;1.77;;;;;;;24.54;41.96;101766.34;5034453;27;97223;-76
2023/05/14 07:01:53;;;;;;;2.17;1.80;;;;;;;24.56;41.89;101768.91;5044787;27;98183;-76
2023/05/14 07:04:20;;;;;;;1.90;1.73;;;;;;;24.55;42.06;101759.81;5046239;27;97166;-76
2023/05/14 07:06:46;;;;;;;2.17;1.77;;;;;;;24.56;42.24;101764.25;5036426;27;96784;-76
2023/05/14 07:09:14;;;;;;;2.35;2.15;;;;;;;24.56;41.88;101768.91;5028628;27;99050;-76
2023/05/14 07:11:41;;;;;;;2.40;2.00;;;;;;;24.56;42.08;101764.25;5042185;27;97289;-76
2023/05/14 07:14:08;;;;;;;1.80;1.70;;;;;;;24.58;42.08;101769.59;5041388;27;96778;-77
2023/05/14 07:16:35;;;;;;;2.08;1.98;;;;;;;24.57;42.00;101771.47;5048101;27;97619;-76
2023/05/14 07:19:01;;;;;;;1.83;1.73;;;;;;;24.57;42.06;101765.97;5044996;27;98943;-77
2023/05/14 07:21:28;;;;;;;1.70;1.60;;;;;;;24.58;42.06;101775.06;5043101;27;97354;-76
2023/05/14 07:23:55;;;;;;;1.80;1.70;;;;;;;24.59;42.31;101771.28;5046233;27;97583;-76
2023/05/14 07:26:23;;;;;;;2.08;1.88;;;;;;;24.58;42.01;101762.19;5045946;27;96762;-76
2023/05/14 07:28:50;;;;;;;2.25;1.95;;;;;;;24.59;42.23;101768.53;5045573;27;97460;-76
2023/05/14 07:31:16;;;;;;;2.13;1.70;;;;;;;24.60;42.11;101767.50;5044257;27;97483;-76
2023/05/14 07:33:43;;;;;;;2.15;2.03;;;;;;;24.61;42.10;101766.47;5038765;27;96851;-76
2023/05/14 07:36:09;;;;;;;1.92;1.80;;;;;;;24.60;41.92;101760.13;5045831;27;96845;-76
2023/05/14 07:38:36;;;;;;;2.35;2.15;;;;;;;24.61;41.92;101767.34;5050116;27;97855;-76
2023/05/14 07:41:03;;;;;;;2.20;2.00;;;;;;;24.61;42.08;101761.84;5047388;27;96894;-76
2023/05/14 07:43:30;;;;;;;2.30;2.10;;;;;;;24.62;42.24;101762.69;5047044;27;96746;-76
2023/05/14 07:45:56;;;;;;;2.40;1.92;;;;;;;24.61;42.28;101759.09;5047724;27;96828;-76
2023/05/14 07:48:23;;;;;;;2.17;1.98;;;;;;;24.62;42.18;101757.19;5055978;27;98247;-77
2023/05/14 07:50:50;;;;;;;2.20;2.00;;;;;;;24.62;42.15;101760.81;5051126;27;98173;-76
2023/05/14 07:53:16;;;;;;;2.05;1.60;;;;;;;24.63;42.08;101761.66;5045015;27;96718;-76
2023/05/14 07:55:45;;;;;;;1.83;1.70;;;;;;;24.63;42.24;101761.66;5052162;27;97202;-76
2023/05/14 07:58:12;;;;;;;1.70;1.60;;;;;;;24.62;41.99;101763.56;5043317;27;97637;-77
2023/05/14 08:00:38;;;;;;;1.92;1.83;;;;;;;24.63;42.08;101765.25;5044083;27;96565;-76
2023/05/14 08:03:05;;;;;;;2.22;2.03;;;;;;;24.63;42.17;101759.78;5045792;27;96741;-76
2023/05/14 08:05:32;;;;;;;2.40;2.20;;;;;;;24.63;41.97;101759.78;5044214;27;97051;-76
2023/05/14 08:07:58;;;;;;;2.30;1.88;;;;;;;24.63;42.33;101759.78;5043377;27;99583;-76
2023/05/14 08:10:25;;;;;;;1.88;1.75;;;;;;;24.64;42.27;101761.47;5034713;27;96821;-76
2023/05/14 08:12:52;;;;;;;2.25;2.05;;;;;;;24.64;42.36;101758.72;5045884;27;96942;-77
2023/05/14 08:15:19;;;;;;;2.70;2.13;;;;;;;24.64;42.10;101761.47;5051569;27;97558;-77
2023/05/14 08:17:45;;;;;;;2.25;2.05;;;;;;;24.65;42.83;101765.09;5057593;27;98193;-76
2023/05/14 08:20:12;;;;;;;2.38;2.03;;;;;;;24.64;42.40;101756.00;5035710;27;96767;-75
2023/05/14 08:22:38;;;;;;;2.10;1.90;;;;;;;24.65;42.47;101754.09;5045689;27;96877;-76
2023/05/14 08:25:06;;;;;;;2.40;2.03;;;;;;;24.66;42.42;101753.06;5040351;27;96940;-75
2023/05/14 08:27:33;;;;;;;2.40;1.92;;;;;;;24.66;42.52;101759.41;5041927;27;97979;-76
2023/05/14 08:30:00;;;;;;;2.22;2.00;;;;;;;24.65;42.42;101760.44;5055152;27;98084;-75
2023/05/14 08:32:26;;;;;;;2.30;2.00;;;;;;;24.67;42.21;101760.28;5046649;27;96835;-76
2023/05/14 08:34:53;;;;;;;4.13;2.40;;;;;;;24.67;42.43;101761.13;5045820;27;96725;-76
2023/05/14 08:37:19;;;;;;;3.10;1.90;;;;;;;24.66;42.63;101753.91;5053229;27;96840;-76
2023/05/14 08:39:46;;;;;;;2.97;2.40;;;;;;;24.67;42.28;101755.63;5046112;27;96814;-76
2023/05/14 08:42:14;;;;;;;4.85;2.45;;;;;;;24.68;42.54;101757.34;5045242;27;97180;-77
2023/05/14 08:44:48;;;;;;;3.55;2.83;;;;;;;24.69;42.51;101749.97;5029693;27;96562;-79
2023/05/14 08:47:17;;;;;;;4.57;2.90;;;;;;;24.68;42.57;101745.50;5042569;27;97900;-76
2023/05/14 08:49:48;;;;;;;5.85;3.45;;;;;;;24.69;42.39;101744.47;5036042;27;96921;-76
2023/05/14 08:52:16;;;;;;;4.45;3.38;;;;;;;24.69;42.43;101749.97;5042925;27;96847;-75
2023/05/14 08:54:44;;;;;;;4.28;3.20;;;;;;;24.69;42.64;101745.31;5046141;27;97034;-76
2023/05/14 08:57:11;;;;;;;4.00;2.75;;;;;;;24.71;42.61;101745.13;5047021;27;97368;-75
2023/05/14 08:59:38;;;;;;;3.35;2.83;;;;;;;24.71;42.53;101745.13;5053351;27;97115;-76
2023/05/14 09:02:06;;;;;;;5.50;2.90;;;;;;;24.72;42.53;101746.84;5041610;27;97317;-76
2023/05/14 09:04:33;;;;;;;4.32;2.47;;;;;;;24.71;42.56;101743.25;5045142;27;96843;-76
2023/05/14 09:07:00;;;;;;;4.43;3.15;;;;;;;24.72;42.44;101741.34;5040143;27;97638;-76
2023/05/14 09:09:27;;;;;;;4.18;3.08;;;;;;;24.72;42.46;101744.09;5044414;27;96872;-76
2023/05/14 09:11:54;;;;;;;3.72;3.10;;;;;;;24.73;42.23;101742.22;5045045;27;96950;-76
2023/05/14 09:14:22;;;;;;;6.75;3.42;;;;;;;24.73;42.50;101742.22;5050722;27;97318;-76
2023/05/14 09:16:49;;;;;;;4.00;3.60;;;;;;;24.73;42.44;101742.22;5042417;27;99331;-75
2023/05/14 09:19:20;;;;;;;4.10;3.58;;;;;;;24.74;42.28;101743.91;5038676;27;98760;-76
2023/05/14 09:21:48;;;;;;;4.90;3.63;;;;;;;24.73;42.23;101731.22;5043567;27;96953;-75
2023/05/14 09:24:23;;;;;;;6.60;3.67;;;;;;;24.74;42.18;101739.28;5057994;27;96834;-75
2023/05/14 09:26:53;;;;;;;5.82;3.72;;;;;;;24.73;42.17;101732.06;5037777;27;97106;-75
2023/05/14 09:29:20;;;;;;;5.97;3.95;;;;;;;24.73;42.19;101734.81;5046478;27;96983;-76
2023/05/14 09:31:50;;;;;;;4.70;3.83;;;;;;;24.73;42.23;101728.47;5047117;27;96932;-76
2023/05/14 09:34:27;;;;;;;6.03;5.13;;;;;;;24.74;42.08;101732.94;5043871;27;97274;-75
2023/05/14 09:37:00;;;;;;;7.68;4.57;;;;;;;24.73;42.22;101728.47;5041752;27;98450;-75
2023/05/14 09:39:27;;;;;;;8.68;4.80;;;;;;;24.72;42.12;101719.38;5041385;27;98452;-75
2023/05/14 09:41:55;;;;;;;5.07;4.45;;;;;;;24.73;42.11;101731.22;5044492;27;97505;-75
2023/05/14 09:44:22;;;;;;;7.72;4.88;;;;;;;24.74;42.23;101725.53;5037301;27;97070;-77
2023/05/14 09:46:50;;;;;;;7.07;4.60;;;;;;;24.75;42.10;101734.66;5044200;27;97669;-75
2023/05/14 09:49:16;;;;;;;6.18;4.32;;;;;;;24.74;42.36;101724.69;5051273;27;98090;-76
2023/05/14 09:51:43;;;;;;;5.07;4.57;;;;;;;24.75;42.10;101726.41;5050262;27;96954;-75
2023/05/14 09:54:10;;;;;;;6.68;4.90;;;;;;;24.75;42.18;101718.16;5046647;27;96827;-77
2023/05/14 09:56:38;;;;;;;7.60;4.97;;;;;;;24.76;42.09;101722.63;5042983;27;98219;-76
2023/05/14 09:59:05;;;;;;;8.43;4.95;;;;;;;24.76;42.17;101720.72;5046506;27;98116;-75
2023/05/14 10:01:32;;;;;;;5.75;5.05;;;;;;;24.77;42.29;101721.59;5042165;27;97649;-76
2023/05/14 10:04:02;;;;;;;8.13;5.57;;;;;;;24.78;42.56;101717.81;5029336;27;97475;-77
2023/05/14 10:06:35;;;;;;;5.60;4.70;;;;;;;24.77;42.52;101702.34;5038149;27;97222;-75
2023/05/14 10:09:11;;;;;;;5.10;4.47;;;;;;;24.78;42.49;101713.16;5039395;27;98108;-78
2023/05/14 10:11:42;;;;;;;6.10;4.40;;;;;;;24.78;42.31;101718.66;5036557;27;97760;-76
2023/05/14 10:14:17;;;;;;;5.65;5.00;;;;;;;24.79;42.58;101703.03;5051221;27;96863;-77
2023/05/14 10:16:49;;;;;;;5.95;3.80;;;;;;;24.78;42.16;101704.91;5053098;27;96951;-78
2023/05/14 10:19:18;;;;;;;9.02;4.03;;;;;;;24.79;42.33;101700.28;5059016;27;97995;-77
2023/05/14 10:21:55;;;;;;;5.40;4.15;;;;;;;24.80;42.33;101700.09;5051108;27;96670;-78
2023/05/14 10:24:23;;;;;;;4.95;3.88;;;;;;;24.79;42.19;101692.03;5062861;27;96872;-77
2023/05/14 10:26:50;;;;;;;5.22;3.97;;;;;;;24.79;42.21;101698.38;5060642;27;96919;-76
2023/05/14 10:29:17;;;;;;;3.95;3.58;;;;;;;24.79;41.97;101690.16;5037923;27;100920;-76
2023/05/14 10:31:46;;;;;;;4.95;3.72;;;;;;;24.80;42.46;101693.75;5053298;27;97311;-77
2023/05/14 10:34:42;;;;;;;5.82;3.97;;;;;;;24.81;42.39;101685.31;5049467;27;96948;-75
2023/05/14 10:37:17;;;;;;;8.75;4.15;;;;;;;24.80;42.26;101689.09;5047069;27;96805;-78
2023/05/14 10:39:49;;;;;;;5.88;4.28;;;;;;;24.80;42.19;101682.75;5045693;27;98757;-78
2023/05/14 10:42:22;;;;;;;4.68;3.50;;;;;;;24.80;42.36;101680.88;5043438;27;96650;-77
2023/05/14 10:45:00;;;;;;;6.30;3.72;;;;;;;24.80;42.13;101682.75;5040820;27;96875;-78
2023/05/14 10:47:28;;;;;;;6.18;3.75;;;;;;;24.80;42.10;101678.13;5055108;27;97059;-77
2023/05/14 10:49:57;;;;;;;6.45;3.83;;;;;;;24.81;42.16;101673.47;5027741;27;99954;-76
2023/05/14 10:52:24;;;;;;;5.38;3.63;;;;;;;24.81;42.25;101667.97;5044372;27;96854;-76
2023/05/14 10:54:56;;;;;;;5.28;3.53;;;;;;;24.82;42.09;101672.44;5048041;27;96710;-75
2023/05/14 10:57:27;;;;;;;5.43;3.50;;;;;;;24.82;42.07;101670.56;5053159;27;97391;-79
2023/05/14 10:59:59;;;;;;;3.97;3.55;;;;;;;24.82;42.25;101669.69;5046413;27;97264;-75
2023/05/14 11:02:36;;;;;;;6.90;4.85;;;;;;;24.83;42.24;101660.41;5042593;27;96885;-77
2023/05/14 11:05:10;;;;;;;4.32;3.40;;;;;;;24.83;42.32;101664.00;5044086;27;98177;-76
2023/05/14 11:07:46;;;;;;;3.72;3.35;;;;;;;24.84;42.18;101662.13;5050953;27;97566;-78
2023/05/14 11:10:20;;;;;;;6.10;3.72;;;;;;;24.82;42.24;101653.22;5053643;27;96751;-81
2023/05/14 11:12:49;;;;;;;3.63;3.22;;;;;;;24.83;42.30;101654.91;5057195;27;97349;-82
2023/05/14 11:15:27;;;;;;;4.65;3.40;;;;;;;24.84;42.13;101651.13;5057585;27;98132;-80
2023/05/14 11:17:53;;;;;;;3.80;3.40;;;;;;;24.83;42.45;101650.28;5049189;27;96806;-77
2023/05/14 11:20:20;;;;;;;3.78;3.17;;;;;;;24.84;42.24;101648.38;5057590;27;97089;-76
2023/05/14 11:22:48;;;;;;;3.92;3.25;;;;;;;24.84;42.26;101652.00;5051629;27;96825;-77
2023/05/14 11:25:15;;;;;;;3.50;3.20;;;;;;;24.85;42.40;101636.34;5052881;27;97063;-77
2023/05/14 11:27:42;;;;;;;3.70;3.20;;;;;;;24.85;42.42;101634.47;5037989;27;99503;-77